createdAt,value
2023-03-20T00:06:37.375Z,100.00
2023-03-20T00:22:35.456Z,100.00
2023-03-20T00:27:27.180Z,100.00
2023-03-20T00:32:18.857Z,100.00
2023-03-20T00:37:11.667Z,100.00
2023-03-20T00:42:07.107Z,100.00
2023-03-20T00:47:03.148Z,100.00
2023-03-20T00:51:55.399Z,100.00
2023-03-20T00:57:11.002Z,100.00
2023-03-20T01:02:04.253Z,100.00
2023-03-20T01:06:56.349Z,100.00
2023-03-20T01:11:48.074Z,100.00
2023-03-20T01:16:40.094Z,100.00
2023-03-20T01:21:31.808Z,100.00
2023-03-20T01:26:36.089Z,100.00
2023-03-20T01:31:27.798Z,100.00
2023-03-20T01:36:23.736Z,100.00
2023-03-20T01:41:18.272Z,100.00
2023-03-20T01:46:24.663Z,100.00
2023-03-20T01:51:23.294Z,100.00
2023-03-20T01:56:17.782Z,100.00
2023-03-20T02:01:13.696Z,100.00
2023-03-20T02:06:07.489Z,100.00
2023-03-20T02:11:01.960Z,100.00
2023-03-20T02:16:09.874Z,100.00
2023-03-20T02:21:57.449Z,100.00
2023-03-20T02:27:32.371Z,100.00
2023-03-20T02:32:49.618Z,100.00
2023-03-20T02:38:09.043Z,100.00
2023-03-20T02:43:25.538Z,100.00
2023-03-20T02:48:56.635Z,100.00
2023-03-20T02:54:34.738Z,100.00
2023-03-20T02:59:47.880Z,100.00
2023-03-20T03:04:49.849Z,100.00
2023-03-20T03:09:53.328Z,100.00
2023-03-20T03:14:55.106Z,100.00
2023-03-20T03:19:55.013Z,100.00
2023-03-20T03:24:52.950Z,100.00
2023-03-20T03:29:53.864Z,100.00
2023-03-20T03:34:46.745Z,100.00
2023-03-20T03:39:53.692Z,100.00
2023-03-20T03:45:04.013Z,100.00
2023-03-20T03:50:05.551Z,100.00
2023-03-20T03:55:13.334Z,100.00
2023-03-20T04:05:21.210Z,100.00
2023-03-20T04:10:14.439Z,100.00
2023-03-20T04:15:07.547Z,100.00
2023-03-20T04:19:59.607Z,100.00
2023-03-20T04:24:52.594Z,100.00
2023-03-20T04:29:44.993Z,100.00
2023-03-20T04:34:37.042Z,100.00
2023-03-20T04:39:28.782Z,100.00
2023-03-20T04:44:20.476Z,100.00
2023-03-20T04:49:12.161Z,100.00
2023-03-20T05:04:16.891Z,100.00
2023-03-20T05:09:08.597Z,100.00
2023-03-20T05:14:00.281Z,100.00
2023-03-20T05:18:52.001Z,100.00
2023-03-20T05:23:43.814Z,100.00
2023-03-20T05:28:36.767Z,100.00
2023-03-20T05:33:28.451Z,100.00
2023-03-20T05:38:24.943Z,100.00
2023-03-20T05:43:16.881Z,100.00
2023-03-20T05:48:08.756Z,100.00
2023-03-20T05:53:00.885Z,100.00
2023-03-20T05:57:52.593Z,100.00
2023-03-20T06:02:47.138Z,100.00
2023-03-20T06:07:39.088Z,100.00
2023-03-20T06:12:30.811Z,100.00
2023-03-20T06:17:22.503Z,100.00
2023-03-20T06:22:14.173Z,100.00
2023-03-20T06:32:13.160Z,100.00
2023-03-20T06:37:04.836Z,100.00
2023-03-20T06:41:56.518Z,100.00
2023-03-20T06:46:48.228Z,100.00
2023-03-20T06:51:39.942Z,100.00
2023-03-20T06:56:32.273Z,100.00
2023-03-20T07:01:24.287Z,100.00
2023-03-20T07:11:24.028Z,97.96
2023-03-20T07:16:16.079Z,96.79
2023-03-20T07:21:16.676Z,95.78
2023-03-20T07:26:09.000Z,94.91
2023-03-20T07:31:00.825Z,94.41
2023-03-20T07:35:56.393Z,94.14
2023-03-20T07:45:56.764Z,91.50
2023-03-20T07:50:49.619Z,90.45
2023-03-20T07:55:43.347Z,90.38
2023-03-20T08:00:35.110Z,88.60
2023-03-20T08:05:27.648Z,85.47
2023-03-20T08:25:42.573Z,76.77
2023-03-20T08:35:40.886Z,76.05
2023-03-20T08:40:37.364Z,77.20
2023-03-20T08:45:29.139Z,75.15
2023-03-20T08:55:35.773Z,72.85
2023-03-20T09:05:37.346Z,73.19
2023-03-20T09:10:29.285Z,72.68
2023-03-20T09:25:39.389Z,70.65
2023-03-20T09:46:30.446Z,69.25
2023-03-20T10:59:28.913Z,61.22
2023-03-20T11:04:26.043Z,59.46
2023-03-20T11:14:39.772Z,59.00
2023-03-20T11:24:57.764Z,56.48
2023-03-20T11:29:52.860Z,56.29
2023-03-20T11:34:45.971Z,56.62
2023-03-20T11:39:41.878Z,56.29
2023-03-20T12:05:39.955Z,60.62
2023-03-20T12:15:59.998Z,59.25
2023-03-20T12:21:13.929Z,60.63
2023-03-20T12:31:58.322Z,60.47
2023-03-20T12:48:08.710Z,58.94
2023-03-20T12:53:25.803Z,58.47
2023-03-20T13:04:00.144Z,56.81
2023-03-20T13:09:23.876Z,57.07
2023-03-20T13:14:38.818Z,54.45
2023-03-20T13:31:27.404Z,55.76
2023-03-20T13:37:04.408Z,55.40
2023-03-20T13:42:18.738Z,56.50
2023-03-20T13:47:25.763Z,54.86
2023-03-20T13:58:37.067Z,52.08
2023-03-20T14:03:38.420Z,51.74
2023-03-20T14:08:46.466Z,51.93
2023-03-20T14:13:40.221Z,51.83
2023-03-20T14:34:18.228Z,50.28
2023-03-20T14:45:20.828Z,49.99
2023-03-20T14:55:59.914Z,50.86
2023-03-20T15:00:53.513Z,50.04
2023-03-20T15:11:07.336Z,50.67
2023-03-20T15:21:18.723Z,50.76
2023-03-20T15:31:40.901Z,52.46
2023-03-20T15:41:55.081Z,52.91
2023-03-20T15:52:32.164Z,53.11
2023-03-20T15:57:47.349Z,53.06
2023-03-20T16:02:41.757Z,52.98
2023-03-20T16:17:48.110Z,53.15
2023-03-20T16:22:48.970Z,52.70
2023-03-20T16:32:57.941Z,54.34
2023-03-20T16:48:44.024Z,55.61
2023-03-20T17:04:19.850Z,56.14
2023-03-20T17:09:23.402Z,57.02
2023-03-20T17:14:20.228Z,58.72
2023-03-20T17:19:20.135Z,60.36
2023-03-20T17:24:14.005Z,61.05
2023-03-20T17:34:23.180Z,62.76
2023-03-20T17:39:22.635Z,64.20
2023-03-20T17:44:15.168Z,64.57
2023-03-20T17:54:33.308Z,65.23
2023-03-20T17:59:29.083Z,66.36
2023-03-20T18:04:24.817Z,68.56
2023-03-20T18:09:17.757Z,69.74
2023-03-20T18:14:16.195Z,69.79
2023-03-20T18:19:28.769Z,70.48
2023-03-20T18:24:22.684Z,70.89
2023-03-20T18:29:15.448Z,71.00
2023-03-20T18:39:20.225Z,71.75
2023-03-20T18:44:13.838Z,72.02
2023-03-20T18:49:07.458Z,72.76
2023-03-20T19:04:14.485Z,73.58
2023-03-20T19:14:16.785Z,73.60
2023-03-20T19:19:15.888Z,73.82
2023-03-20T19:24:10.511Z,74.32
2023-03-20T19:34:36.872Z,74.11
2023-03-20T19:44:31.048Z,74.32
2023-03-20T19:49:30.972Z,75.11
2023-03-20T19:54:25.237Z,75.57
2023-03-20T20:04:27.689Z,77.87
2023-03-20T20:09:20.300Z,79.35
2023-03-20T20:14:14.914Z,79.92
2023-03-20T20:19:07.236Z,81.01
2023-03-20T20:23:58.938Z,81.26
2023-03-20T20:28:51.896Z,81.25
2023-03-20T20:34:01.241Z,82.08
2023-03-20T20:38:56.332Z,81.79
2023-03-20T20:44:14.602Z,82.46
2023-03-20T20:54:13.780Z,82.26
2023-03-20T20:59:05.796Z,81.88
2023-03-20T21:03:57.985Z,81.95
2023-03-20T21:08:50.136Z,82.78
2023-03-20T21:13:41.960Z,83.90
2023-03-20T21:18:34.926Z,84.32
2023-03-20T21:23:26.600Z,84.30
2023-03-20T21:28:18.277Z,84.45
2023-03-20T21:33:10.431Z,83.92
2023-03-20T21:38:47.498Z,84.57
2023-03-20T21:43:17.066Z,84.93
2023-03-20T21:59:11.795Z,84.43
2023-03-20T22:09:45.755Z,84.51
2023-03-20T22:25:08.380Z,84.52
2023-03-20T22:45:17.611Z,85.44
2023-03-20T22:50:10.423Z,85.96
2023-03-20T22:55:02.108Z,87.66
2023-03-20T22:59:53.783Z,87.17
2023-03-20T23:26:16.837Z,90.70
2023-03-20T23:31:17.237Z,92.10
2023-03-20T23:36:18.967Z,92.64
2023-03-20T23:46:24.472Z,93.49
2023-03-20T23:51:16.589Z,93.93
2023-03-20T23:56:11.798Z,95.78
